Time;durP1;ratioP1;P1;durP2;ratioP2;P2;SDS_P1;SDS_P2;PMS_P1;PMS_P2;Temp;Humidity;BMP_temperature;BMP_pressure;BME280_temperature;BME280_humidity;BME280_pressure;Samples;Min_cycle;Max_cycle;Signal;HPM_P1;HPM_P2
2022/08/22 00:02:04;;;;;;;20.13;11.88;;;;;;;22.02;29.54;100514.16;5029487;28;20037;-51
2022/08/22 00:04:47;;;;;;;18.80;13.32;;;;;;;22.01;29.51;100519.81;5028574;28;20057;-46
2022/08/22 00:07:27;;;;;;;20.08;12.55;;;;;;;21.68;29.66;100492.78;5032950;28;20484;-49
2022/08/22 00:10:34;;;;;;;21.42;14.68;;;;;;;21.90;29.66;100524.66;5027411;28;20474;-51
2022/08/22 00:13:08;;;;;;;22.55;15.02;;;;;;;21.81;29.75;100523.03;5019004;28;20070;-51
2022/08/22 00:15:41;;;;;;;22.40;15.17;;;;;;;21.78;30.20;100517.94;5020382;28;20033;-50
2022/08/22 00:18:30;;;;;;;23.67;15.98;;;;;;;21.75;29.96;100523.75;5030283;28;20267;-53
2022/08/22 00:21:16;;;;;;;26.63;17.63;;;;;;;21.87;29.53;100530.47;5033276;28;20038;-47
2022/08/22 00:24:00;;;;;;;30.13;18.15;;;;;;;21.77;30.17;100522.53;5032074;28;20033;-50
2022/08/22 00:26:25;;;;;;;31.65;19.02;;;;;;;21.67;30.54;100523.78;5032003;28;20042;-50
2022/08/22 00:29:00;;;;;;;32.15;21.45;;;;;;;21.71;30.21;100530.59;5031991;28;20036;-56
2022/08/22 00:31:38;;;;;;;34.47;21.08;;;;;;;21.75;30.33;100532.75;5020774;28;20092;-49
2022/08/22 00:34:21;;;;;;;34.15;22.92;;;;;;;21.73;30.09;100528.53;5026570;28;20091;-51
2022/08/22 00:37:06;;;;;;;38.50;22.85;;;;;;;21.78;30.16;100528.84;5032304;28;20044;-50
2022/08/22 00:39:45;;;;;;;37.23;24.67;;;;;;;21.71;30.43;100523.25;5031384;28;20089;-51
2022/08/22 00:42:49;;;;;;;36.40;25.27;;;;;;;21.72;29.95;100524.13;5023970;28;20022;-47
2022/08/22 00:45:52;;;;;;;36.05;25.63;;;;;;;21.62;30.59;100533.31;5011450;28;20041;-50
2022/08/22 00:48:57;;;;;;;39.55;27.33;;;;;;;21.70;30.40;100528.88;5009394;28;20132;-47
2022/08/22 00:51:40;;;;;;;44.17;29.55;;;;;;;21.64;30.32;100528.56;5010651;28;20054;-51
2022/08/22 00:54:15;;;;;;;42.42;29.42;;;;;;;21.58;30.75;100523.81;5016576;28;20060;-54
2022/08/22 00:57:04;;;;;;;44.05;29.33;;;;;;;21.57;30.60;100519.41;5032121;28;20041;-52
2022/08/22 01:00:12;;;;;;;53.22;32.35;;;;;;;21.67;30.58;100519.19;5014879;28;20034;-51
2022/08/22 01:02:56;;;;;;;50.17;32.80;;;;;;;21.65;30.51;100533.00;5013321;28;20049;-49
2022/08/22 01:05:37;;;;;;;47.10;31.95;;;;;;;21.57;30.81;100538.47;5013281;28;20041;-49
2022/08/22 01:08:44;;;;;;;46.78;32.55;;;;;;;21.62;30.81;100535.22;5012006;28;20038;-47
2022/08/22 01:11:37;;;;;;;49.35;33.58;;;;;;;21.59;30.66;100539.13;5020067;28;20048;-49
2022/08/22 01:14:31;;;;;;;47.17;34.13;;;;;;;21.63;30.54;100551.38;5020509;28;20025;-52
2022/08/22 01:16:57;;;;;;;50.83;35.13;;;;;;;21.48;31.05;100551.28;5015921;28;20367;-55
2022/08/22 01:19:42;;;;;;;52.55;34.78;;;;;;;21.60;30.73;100556.34;5012157;28;20037;-49
2022/08/22 01:22:44;;;;;;;51.38;34.90;;;;;;;21.61;30.92;100553.44;5017383;28;20046;-48
2022/08/22 01:25:18;;;;;;;49.47;35.03;;;;;;;21.55;31.17;100559.59;5012097;28;20049;-47
2022/08/22 01:28:11;;;;;;;53.85;35.63;;;;;;;21.60;31.19;100556.34;5011787;28;20044;-50
2022/08/22 01:30:49;;;;;;;49.05;33.40;;;;;;;21.58;31.39;100553.78;5022357;28;20120;-52
2022/08/22 01:33:48;;;;;;;47.90;34.05;;;;;;;21.59;31.35;100550.03;5016231;28;20041;-51
2022/08/22 01:36:25;;;;;;;49.90;35.17;;;;;;;21.58;31.42;100542.88;5012615;28;20382;-54
2022/08/22 01:39:00;;;;;;;52.65;34.97;;;;;;;21.58;32.13;100542.88;5011693;28;20348;-53
2022/08/22 01:41:38;;;;;;;54.88;34.15;;;;;;;21.51;32.21;100540.03;5011855;28;20082;-49
2022/08/22 01:44:24;;;;;;;51.97;34.13;;;;;;;21.48;32.83;100542.28;5011989;28;20554;-52
2022/08/22 01:47:11;;;;;;;48.55;32.45;;;;;;;21.49;32.39;100560.31;5023585;28;20045;-50
2022/08/22 01:49:43;;;;;;;43.40;30.35;;;;;;;21.31;32.76;100533.31;5011677;28;20042;-50
2022/08/22 01:52:16;;;;;;;43.70;30.83;;;;;;;21.40;32.98;100550.47;5022298;28;20536;-52
2022/08/22 01:54:53;;;;;;;44.78;31.23;;;;;;;21.40;33.12;100547.75;5011871;28;20025;-50
2022/08/22 01:57:21;;;;;;;51.47;33.65;;;;;;;21.32;33.19;100537.72;5019338;28;20446;-50
2022/08/22 01:59:51;;;;;;;49.22;32.25;;;;;;;21.31;33.43;100558.69;5014982;28;20038;-49
2022/08/22 02:02:17;;;;;;;52.22;35.90;;;;;;;21.30;33.80;100545.22;5020360;28;20026;-46
2022/08/22 02:05:01;;;;;;;50.33;35.40;;;;;;;21.25;33.79;100525.84;5031130;28;20059;-48
2022/08/22 02:07:44;;;;;;;46.83;34.28;;;;;;;21.37;33.71;100532.63;5026546;28;20436;-53
2022/08/22 02:10:40;;;;;;;46.60;32.72;;;;;;;21.29;33.65;100519.88;5021895;28;20052;-48
2022/08/22 02:13:08;;;;;;;49.35;32.25;;;;;;;21.24;33.79;100519.59;5026268;28;20038;-48
2022/08/22 02:16:20;;;;;;;50.85;33.63;;;;;;;21.36;33.55;100523.59;5021670;28;20056;-47
2022/08/22 02:18:53;;;;;;;49.40;33.20;;;;;;;21.32;33.54;100514.09;5014482;28;20045;-53
2022/08/22 02:21:38;;;;;;;49.72;32.50;;;;;;;21.22;34.08;100505.28;5029841;28;20029;-51
2022/08/22 02:24:23;;;;;;;52.70;32.92;;;;;;;21.19;33.85;100533.72;5030775;28;20033;-57
2022/08/22 02:27:03;;;;;;;51.38;38.25;;;;;;;21.27;33.90;100554.63;5025867;28;20108;-50
2022/08/22 02:30:01;;;;;;;57.22;41.08;;;;;;;21.20;34.21;100540.00;5023321;28;20049;-50
2022/08/22 02:33:16;;;;;;;59.50;40.13;;;;;;;21.20;34.62;100545.44;5029588;28;20068;-50
2022/08/22 02:35:55;;;;;;;63.08;39.25;;;;;;;21.13;34.59;100522.66;5000959;28;20050;-50
2022/08/22 02:38:23;;;;;;;61.78;42.80;;;;;;;21.14;34.87;100529.81;5027118;28;20040;-51
2022/08/22 02:41:31;;;;;;;63.40;42.47;;;;;;;21.17;34.39;100540.34;5010738;28;20481;-52
2022/08/22 02:44:03;;;;;;;59.75;41.92;;;;;;;21.11;34.75;100530.16;5010286;28;20069;-47
2022/08/22 02:46:48;;;;;;;63.13;42.17;;;;;;;21.24;34.68;100535.91;5017084;28;20042;-52
2022/08/22 02:49:37;;;;;;;61.47;43.95;;;;;;;21.23;34.72;100512.44;5011169;28;20065;-53
2022/08/22 02:52:17;;;;;;;59.97;44.50;;;;;;;21.23;34.75;100517.88;5015828;28;20496;-49
2022/08/22 02:54:46;;;;;;;68.03;44.88;;;;;;;21.07;35.17;100522.34;5017410;28;20500;-54
2022/08/22 02:57:30;;;;;;;71.97;47.30;;;;;;;21.12;35.25;100538.19;5010761;28;20057;-53
2022/08/22 03:00:16;;;;;;;75.78;50.03;;;;;;;21.10;35.25;100545.69;5028215;28;21053;-54
2022/08/22 03:02:43;;;;;;;68.53;49.28;;;;;;;21.06;34.93;100549.75;5018602;28;20471;-50
2022/08/22 03:05:22;;;;;;;76.25;50.83;;;;;;;21.15;34.66;100542.41;5018423;28;20525;-52
2022/08/22 03:08:03;;;;;;;70.68;51.55;;;;;;;21.10;34.89;100540.22;5014711;28;20499;-55
2022/08/22 03:10:36;;;;;;;70.25;49.63;;;;;;;21.08;35.21;100564.03;5020502;28;20088;-54
2022/08/22 03:13:23;;;;;;;75.82;50.25;;;;;;;21.15;35.17;100558.75;5015644;28;20378;-51
2022/08/22 03:16:03;;;;;;;74.82;51.30;;;;;;;21.14;35.02;100554.31;5014548;28;20157;-52
2022/08/22 03:18:54;;;;;;;73.57;52.72;;;;;;;21.28;34.58;100559.03;5014445;28;20084;-57
2022/08/22 03:21:34;;;;;;;79.18;53.15;;;;;;;21.32;34.65;100560.38;5030114;28;20052;-52
2022/08/22 03:24:11;;;;;;;83.75;53.67;;;;;;;21.34;34.53;100558.31;5027739;28;20096;-48
2022/08/22 03:26:55;;;;;;;72.05;52.40;;;;;;;21.28;34.52;100564.50;5024045;28;20030;-52
2022/08/22 03:29:30;;;;;;;77.80;53.15;;;;;;;21.23;34.50;100556.00;5033073;28;20044;-48
2022/08/22 03:32:10;;;;;;;77.38;52.55;;;;;;;21.38;34.29;100561.56;5020030;28;20034;-54
2022/08/22 03:34:37;;;;;;;73.47;52.63;;;;;;;21.28;34.77;100566.34;5024341;28;20034;-52
2022/08/22 03:37:21;;;;;;;73.70;52.85;;;;;;;21.32;34.57;100565.84;5013991;28;20030;-52
2022/08/22 03:39:54;;;;;;;77.53;54.47;;;;;;;21.29;34.78;100558.03;5013988;28;20037;-51
2022/08/22 03:42:34;;;;;;;80.13;55.50;;;;;;;21.46;34.20;100555.19;5014041;28;20041;-50
2022/08/22 03:45:14;;;;;;;78.10;52.58;;;;;;;21.28;34.67;100553.59;5014312;28;20116;-51
2022/08/22 03:48:04;;;;;;;76.38;52.17;;;;;;;21.32;34.49;100557.66;5014499;28;20442;-58
2022/08/22 03:51:06;;;;;;;84.88;53.38;;;;;;;21.53;34.07;100556.22;5028167;28;20498;-51
2022/08/22 03:53:58;;;;;;;74.30;53.08;;;;;;;21.41;34.53;100547.56;5014990;28;20473;-51
2022/08/22 03:56:43;;;;;;;70.50;50.20;;;;;;;21.43;34.00;100552.84;5024110;28;20057;-50
2022/08/22 03:59:39;;;;;;;77.40;50.38;;;;;;;21.47;34.06;100548.75;5032994;28;20041;-49
2022/08/22 04:02:20;;;;;;;72.18;51.30;;;;;;;21.42;34.55;100546.56;5031638;28;20030;-59
2022/08/22 04:05:01;;;;;;;74.72;50.72;;;;;;;21.61;33.73;100553.44;5032221;28;20057;-48
2022/08/22 04:07:33;;;;;;;78.22;51.30;;;;;;;21.65;33.72;100552.06;5014326;28;20050;-46
2022/08/22 04:10:24;;;;;;;78.68;51.30;;;;;;;21.85;33.24;100558.97;5013133;28;20038;-53
2022/08/22 04:13:20;;;;;;;77.82;49.25;;;;;;;21.96;33.03;100560.44;5032471;28;20030;-50
2022/08/22 04:16:28;;;;;;;77.20;50.85;;;;;;;22.01;33.01;100563.44;5033010;28;20041;-54
2022/08/22 04:19:00;;;;;;;69.90;49.22;;;;;;;21.99;33.15;100565.50;5010858;28;20084;-52
2022/08/22 04:21:26;;;;;;;76.05;50.75;;;;;;;22.02;33.10;100559.69;5010745;28;20046;-47
2022/08/22 04:24:25;;;;;;;75.22;53.67;;;;;;;22.22;32.92;100558.19;5018854;28;20224;-48
2022/08/22 04:26:53;;;;;;;75.57;51.88;;;;;;;22.33;32.55;100551.44;5028208;28;20029;-48
2022/08/22 04:29:36;;;;;;;75.45;52.72;;;;;;;22.49;32.57;100547.75;5012953;28;20048;-50
2022/08/22 04:32:16;;;;;;;82.00;52.80;;;;;;;22.69;32.04;100563.59;5013093;28;20120;-53
2022/08/22 04:35:10;;;;;;;76.60;53.33;;;;;;;22.91;31.66;100558.25;5013532;28;20033;-71
2022/08/22 04:37:49;;;;;;;78.95;55.08;;;;;;;23.09;30.98;100555.16;5021799;28;20441;-50
2022/08/22 04:40:43;;;;;;;76.70;55.30;;;;;;;23.41;30.90;100550.34;5027270;28;20087;-50
2022/08/22 04:43:33;;;;;;;74.07;54.03;;;;;;;23.69;30.42;100554.25;5028605;28;20043;-53
2022/08/22 04:46:16;;;;;;;77.60;55.55;;;;;;;24.08;29.70;100558.47;5022184;28;20038;-68
2022/08/22 04:48:51;;;;;;;76.45;54.45;;;;;;;24.90;28.64;100566.31;5013600;28;20112;-53
2022/08/22 04:51:34;;;;;;;77.22;57.90;;;;;;;25.29;27.90;100567.59;5013406;28;20108;-51
2022/08/22 04:54:31;;;;;;;77.53;57.20;;;;;;;25.39;28.17;100556.25;5014726;28;20042;-52
2022/08/22 04:57:29;;;;;;;82.78;58.10;;;;;;;25.15;28.15;100557.63;5017095;28;20056;-50
2022/08/22 05:00:03;;;;;;;86.53;59.00;;;;;;;25.18;28.00;100559.94;5011957;28;20052;-55
2022/08/22 05:02:30;;;;;;;83.88;59.85;;;;;;;25.19;28.56;100556.16;5025453;28;20034;-53
2022/08/22 05:05:02;;;;;;;79.03;57.70;;;;;;;25.21;28.32;100562.28;5012096;28;20502;-52
2022/08/22 05:07:36;;;;;;;83.38;59.20;;;;;;;25.21;28.21;100562.28;5013111;28;20034;-55
2022/08/22 05:10:08;;;;;;;82.80;59.72;;;;;;;25.30;28.16;100557.47;5011633;28;20038;-54
2022/08/22 05:12:42;;;;;;;76.38;58.83;;;;;;;25.76;27.69;100550.50;5017548;28;20029;-53
2022/08/22 05:15:23;;;;;;;80.35;59.58;;;;;;;26.90;26.61;100544.25;5031595;28;20137;-50
2022/08/22 05:17:52;;;;;;;79.78;58.42;;;;;;;27.80;24.84;100534.41;5030643;28;20525;-51
2022/08/22 05:20:22;;;;;;;79.93;59.38;;;;;;;28.25;24.60;100536.22;5014686;28;20041;-57
2022/08/22 05:22:56;;;;;;;77.18;57.70;;;;;;;28.47;24.29;100533.09;5010859;28;20041;-52
2022/08/22 05:25:31;;;;;;;81.88;59.65;;;;;;;28.75;23.50;100532.59;5015586;28;20037;-49
2022/08/22 05:28:41;;;;;;;78.15;57.05;;;;;;;29.33;23.66;100535.19;5021576;28;20037;-55
2022/08/22 05:31:15;;;;;;;72.97;55.15;;;;;;;29.40;22.84;100538.69;5016314;28;20088;-52
2022/08/22 05:33:47;;;;;;;79.85;56.17;;;;;;;29.27;23.23;100539.69;5017216;28;20030;-54
2022/08/22 05:36:22;;;;;;;77.78;55.72;;;;;;;29.63;22.34;100534.38;5012866;28;20524;-50
2022/08/22 05:39:01;;;;;;;71.90;54.25;;;;;;;29.55;22.90;100530.03;5013995;28;20030;-53
2022/08/22 05:41:31;;;;;;;75.55;58.10;;;;;;;28.95;23.18;100531.59;5017834;28;20059;-54
2022/08/22 05:43:58;;;;;;;75.13;56.70;;;;;;;28.61;23.52;100515.38;5029464;28;20103;-53
2022/08/22 05:46:58;;;;;;;71.72;55.80;;;;;;;29.75;22.71;100537.19;5030453;28;20547;-52
2022/08/22 05:49:30;;;;;;;80.50;59.88;;;;;;;30.49;21.69;100531.34;5031033;28;20044;-53
2022/08/22 05:52:14;;;;;;;75.10;62.05;;;;;;;30.12;22.12;100531.53;5016769;28;20188;-54
2022/08/22 05:54:56;;;;;;;81.30;61.15;;;;;;;29.65;22.64;100533.06;5011286;28;20029;-52
2022/08/22 05:57:28;;;;;;;87.22;63.30;;;;;;;30.30;21.90;100532.53;5024593;28;20029;-49
2022/08/22 06:00:21;;;;;;;82.88;64.38;;;;;;;30.54;21.85;100535.31;5029835;28;20052;-53
2022/08/22 06:03:14;;;;;;;79.00;61.28;;;;;;;29.94;22.05;100538.81;5029715;28;20042;-69
2022/08/22 06:06:08;;;;;;;84.22;64.80;;;;;;;29.08;23.13;100542.44;5012262;28;20071;-49
2022/08/22 06:08:47;;;;;;;84.88;66.20;;;;;;;29.92;22.24;100534.59;5029110;28;20467;-53
2022/08/22 06:11:27;;;;;;;87.82;67.57;;;;;;;30.25;22.17;100540.69;5026854;28;20041;-49
2022/08/22 06:14:06;;;;;;;83.22;66.07;;;;;;;30.26;22.24;100543.22;5020138;28;20061;-52
2022/08/22 06:17:09;;;;;;;86.45;65.07;;;;;;;30.47;22.10;100544.56;5014214;28;20419;-48
2022/08/22 06:19:38;;;;;;;81.90;64.60;;;;;;;30.55;22.15;100543.38;5013089;28;20482;-53
2022/08/22 06:22:05;;;;;;;86.75;63.78;;;;;;;30.34;21.30;100548.41;5011056;28;20084;-53
2022/08/22 06:24:35;;;;;;;86.00;66.80;;;;;;;29.82;22.01;100548.97;5023608;28;20111;-56
2022/08/22 06:27:09;;;;;;;81.10;65.93;;;;;;;29.41;22.88;100551.44;5030319;28;20026;-50
2022/08/22 06:29:39;;;;;;;88.50;69.38;;;;;;;29.14;23.18;100561.91;5027988;28;20081;-51
2022/08/22 06:32:13;;;;;;;98.07;69.10;;;;;;;29.21;23.33;100557.16;5021820;28;20049;-54
2022/08/22 06:34:42;;;;;;;86.28;66.80;;;;;;;29.81;22.47;100558.31;5023830;28;20038;-49
2022/08/22 06:37:15;;;;;;;88.72;67.70;;;;;;;31.04;20.87;100551.41;5027410;28;20223;-50
2022/08/22 06:39:47;;;;;;;87.13;66.45;;;;;;;32.20;19.52;100540.41;5030819;28;20034;-54
2022/08/22 06:42:32;;;;;;;84.07;67.47;;;;;;;33.39;19.08;100544.06;5029435;28;20527;-53
2022/08/22 06:44:57;;;;;;;93.90;73.05;;;;;;;34.25;17.71;100538.88;5031910;28;20040;-54
2022/08/22 06:47:37;;;;;;;89.07;68.55;;;;;;;34.83;17.63;100535.38;5019325;28;20113;-53
2022/08/22 06:50:18;;;;;;;87.97;73.38;;;;;;;34.06;18.04;100542.03;5015113;28;20041;-52
2022/08/22 06:53:26;;;;;;;88.03;73.72;;;;;;;32.94;19.22;100546.00;5019446;28;20512;-60
2022/08/22 06:55:58;;;;;;;92.63;75.20;;;;;;;31.78;20.27;100546.31;5023077;28;20405;-49
2022/08/22 06:58:55;;;;;;;88.10;70.95;;;;;;;31.08;21.33;100555.38;5018903;28;20037;-56
2022/08/22 07:01:24;;;;;;;101.75;78.22;;;;;;;30.18;22.00;100560.13;5013770;28;20132;-54
2022/08/22 07:03:53;;;;;;;98.85;79.95;;;;;;;29.47;22.89;100556.00;5027074;28;20468;-64
2022/08/22 07:06:28;;;;;;;96.55;77.15;;;;;;;29.13;23.83;100562.97;5033731;28;20040;-54
2022/08/22 07:08:54;;;;;;;98.90;73.72;;;;;;;30.39;22.90;100558.75;5018121;28;20462;-54
2022/08/22 07:11:27;;;;;;;91.55;77.25;;;;;;;32.62;20.20;100552.19;5024770;28;20047;-54
2022/08/22 07:13:57;;;;;;;91.95;73.25;;;;;;;34.69;18.24;100556.44;5033283;28;20033;-52
2022/08/22 07:16:34;;;;;;;84.82;64.30;;;;;;;37.03;16.04;100553.88;5034334;28;20033;-58
2022/08/22 07:19:00;;;;;;;77.95;60.47;;;;;;;38.29;14.25;100563.19;5032574;28;20036;-53
2022/08/22 07:21:41;;;;;;;81.32;61.25;;;;;;;38.97;14.38;100563.44;5027489;28;20030;-54
2022/08/22 07:24:08;;;;;;;67.10;56.28;;;;;;;38.80;13.25;100566.66;5024189;28;20045;-56
2022/08/22 07:27:04;;;;;;;76.15;56.58;;;;;;;39.33;13.54;100552.59;5024299;28;20030;-52
2022/08/22 07:29:45;;;;;;;66.88;55.72;;;;;;;38.79;14.30;100559.38;5022393;28;20077;-58
2022/08/22 07:32:19;;;;;;;69.60;60.30;;;;;;;38.46;14.06;100565.59;5021100;28;20041;-55
2022/08/22 07:35:09;;;;;;;73.47;61.60;;;;;;;38.98;14.05;100559.50;5023045;28;20072;-54
2022/08/22 07:37:43;;;;;;;73.85;60.35;;;;;;;40.06;12.89;100565.59;5023869;28;20049;-58
2022/08/22 07:40:17;;;;;;;67.85;59.13;;;;;;;40.28;12.78;100569.75;5033610;28;20053;-54
2022/08/22 07:42:52;;;;;;;76.57;61.87;;;;;;;40.37;12.54;100567.91;5032316;28;20087;-55
2022/08/22 07:45:32;;;;;;;;;;;;;;;41.16;12.22;100559.69;5034134;28;20042;-56
2022/08/22 07:48:03;;;;;;;66.28;58.97;;;;;;;38.97;14.00;100566.22;5033514;28;19913;-57
2022/08/22 07:50:34;;;;;;;74.35;60.03;;;;;;;38.36;14.02;100560.94;5026216;28;20029;-58
2022/08/22 07:53:18;;;;;;;78.18;62.85;;;;;;;38.27;14.27;100571.06;5020292;28;20026;-51
2022/08/22 07:55:45;;;;;;;77.13;63.15;;;;;;;37.47;14.89;100568.19;5020403;28;20416;-55
2022/08/22 07:58:12;;;;;;;71.40;61.00;;;;;;;37.38;14.78;100567.09;5023983;28;20045;-61
2022/08/22 08:00:44;;;;;;;72.75;60.33;;;;;;;37.23;15.34;100577.25;5023602;28;20053;-58
2022/08/22 08:03:11;;;;;;;70.80;57.75;;;;;;;36.53;15.73;100558.44;5023663;28;20080;-57
2022/08/22 08:05:42;;;;;;;68.32;56.22;;;;;;;36.34;15.86;100561.75;5023257;28;20370;-60
2022/08/22 08:08:18;;;;;;;68.95;53.92;;;;;;;36.37;16.02;100577.91;5026950;28;20030;-58
2022/08/22 08:10:46;;;;;;;70.63;55.92;;;;;;;35.85;16.44;100574.25;5013076;28;20045;-55
2022/08/22 08:13:20;;;;;;;70.45;55.85;;;;;;;35.15;16.92;100541.97;5013071;28;20029;-54
2022/08/22 08:15:48;;;;;;;73.60;59.97;;;;;;;34.81;17.44;100567.38;5014073;28;20042;-61
2022/08/22 08:18:20;;;;;;;74.47;57.40;;;;;;;34.58;17.92;100566.66;5013100;28;20116;-56
2022/08/22 08:20:53;;;;;;;78.55;60.80;;;;;;;34.10;18.47;100561.81;5024954;28;20481;-58
2022/08/22 08:23:20;;;;;;;69.30;59.75;;;;;;;33.60;18.79;100561.84;5014386;28;20026;-57
2022/08/22 08:25:57;;;;;;;83.35;62.35;;;;;;;33.42;19.17;100556.59;5021579;28;20045;-56
2022/08/22 08:28:36;;;;;;;78.80;63.38;;;;;;;33.28;19.28;100557.00;5018525;28;20383;-63
2022/08/22 08:31:19;;;;;;;79.30;61.97;;;;;;;33.31;19.79;100562.03;5024491;28;20111;-56
2022/08/22 08:33:49;;;;;;;87.57;63.35;;;;;;;33.24;19.87;100566.09;5021672;28;20101;-56
2022/08/22 08:36:30;;;;;;;84.97;66.45;;;;;;;33.34;20.05;100561.50;5021479;28;20052;-58
2022/08/22 08:39:43;;;;;;;89.75;72.18;;;;;;;33.36;19.77;100558.47;5021999;28;20040;-57
2022/08/22 08:42:15;;;;;;;94.70;72.45;;;;;;;33.03;20.38;100555.53;5021647;28;20467;-57
2022/08/22 08:44:40;;;;;;;93.22;76.32;;;;;;;32.69;20.52;100549.25;5021324;28;20482;-55
2022/08/22 08:47:19;;;;;;;96.32;74.63;;;;;;;32.44;20.60;100553.28;5015498;28;20084;-57
2022/08/22 08:50:28;;;;;;;89.88;70.82;;;;;;;32.49;21.14;100556.16;5012016;28;20034;-55
2022/08/22 08:53:05;;;;;;;93.55;69.28;;;;;;;32.57;20.71;100546.56;5014146;28;20033;-66
2022/08/22 08:55:50;;;;;;;85.22;66.22;;;;;;;32.37;20.40;100545.16;5010785;28;20022;-56
2022/08/22 08:58:27;;;;;;;88.10;68.23;;;;;;;32.20;21.46;100545.94;5013533;28;20037;-55
2022/08/22 09:01:10;;;;;;;88.38;67.53;;;;;;;32.39;20.80;100545.72;5031502;28;20695;-54
2022/08/22 09:03:55;;;;;;;93.88;69.72;;;;;;;32.44;21.52;100551.34;5030565;28;20057;-54
2022/08/22 09:06:52;;;;;;;81.88;64.30;;;;;;;32.63;20.99;100556.63;5031810;28;20045;-55
2022/08/22 09:09:36;;;;;;;77.85;54.33;;;;;;;32.64;20.91;100563.84;5023715;28;20042;-52
2022/08/22 09:12:50;;;;;;;68.23;51.00;;;;;;;33.04;19.96;100562.81;5018360;28;20501;-54
2022/08/22 09:15:42;;;;;;;67.22;50.05;;;;;;;32.90;19.98;100559.53;5030161;28;20283;-54
2022/08/22 09:18:28;;;;;;;69.43;50.30;;;;;;;32.84;20.50;100565.25;5030937;28;20393;-55
2022/08/22 09:21:25;;;;;;;70.72;50.03;;;;;;;32.92;20.13;100559.28;5030588;28;20127;-69
2022/08/22 09:24:29;;;;;;;72.50;48.13;;;;;;;32.95;20.02;100564.31;5028232;28;20192;-55
2022/08/22 09:26:59;;;;;;;57.58;44.50;;;;;;;32.62;20.39;100560.50;5011710;28;20026;-63
2022/08/22 09:29:54;;;;;;;63.35;49.17;;;;;;;32.74;20.73;100569.53;5011527;28;20065;-59
2022/08/22 09:33:05;;;;;;;66.93;47.90;;;;;;;32.36;20.87;100574.78;5011855;28;20046;-57
2022/08/22 09:35:45;;;;;;;67.90;47.13;;;;;;;31.81;21.61;100564.34;5010173;28;20045;-56
2022/08/22 09:38:36;;;;;;;62.65;47.53;;;;;;;31.45;22.36;100556.16;5011627;28;20026;-53
2022/08/22 09:41:10;;;;;;;75.18;53.35;;;;;;;31.55;22.29;100552.75;5018914;28;20057;-53
2022/08/22 09:43:54;;;;;;;76.65;55.10;;;;;;;31.92;22.23;100569.84;5011218;28;20197;-55
2022/08/22 09:46:24;;;;;;;74.70;55.17;;;;;;;32.05;21.57;100559.50;5011458;28;20037;-55
2022/08/22 09:48:55;;;;;;;69.45;53.58;;;;;;;32.34;21.64;100559.50;5011236;28;20038;-62
2022/08/22 09:51:45;;;;;;;71.05;51.08;;;;;;;32.65;20.92;100557.22;5011494;28;20501;-56
2022/08/22 09:54:28;;;;;;;60.83;46.55;;;;;;;32.66;21.05;100553.34;5011379;28;20022;-55
2022/08/22 09:57:07;;;;;;;59.88;45.95;;;;;;;32.57;20.93;100552.09;5011661;28;20034;-55
2022/08/22 09:59:32;;;;;;;59.97;43.47;;;;;;;32.51;21.52;100542.88;5011164;28;20049;-57
2022/08/22 10:02:16;;;;;;;56.88;42.88;;;;;;;32.65;21.03;100555.25;5011343;28;20026;-55
2022/08/22 10:05:16;;;;;;;52.97;39.97;;;;;;;32.82;20.81;100548.03;5010845;28;20065;-55
2022/08/22 10:07:57;;;;;;;54.67;40.53;;;;;;;32.83;21.05;100549.72;5011276;28;20060;-56
2022/08/22 10:10:59;;;;;;;58.85;41.50;;;;;;;32.87;21.29;100548.09;5011287;28;20133;-57
2022/08/22 10:14:00;;;;;;;63.00;42.95;;;;;;;32.73;21.05;100534.59;5021098;28;20040;-53
2022/08/22 10:16:53;;;;;;;53.53;43.50;;;;;;;33.10;21.13;100543.44;5008001;28;20103;-53
2022/08/22 10:19:31;;;;;;;54.10;44.10;;;;;;;33.16;20.90;100547.97;5011662;28;20072;-54
2022/08/22 10:22:06;;;;;;;55.38;41.58;;;;;;;33.09;21.01;100550.09;5023838;28;20111;-62
2022/08/22 10:24:55;;;;;;;46.13;36.53;;;;;;;32.90;20.79;100545.66;5016714;28;20022;-57
2022/08/22 10:27:45;;;;;;;49.85;35.75;;;;;;;32.64;21.03;100555.53;5028040;28;20047;-55
2022/08/22 10:30:17;;;;;;;40.70;29.90;;;;;;;32.27;20.88;100550.47;5030566;28;20386;-56
2022/08/22 10:33:01;;;;;;;43.15;30.20;;;;;;;32.10;21.52;100550.47;5030218;28;20095;-57
2022/08/22 10:35:56;;;;;;;41.05;30.90;;;;;;;31.95;21.54;100551.88;5019215;28;20398;-55
2022/08/22 10:38:26;;;;;;;42.33;30.80;;;;;;;31.68;21.71;100546.09;5010667;28;20100;-58
2022/08/22 10:41:04;;;;;;;40.05;31.27;;;;;;;31.76;21.57;100548.44;5010581;28;20159;-58
2022/08/22 10:43:44;;;;;;;47.60;34.70;;;;;;;31.86;21.76;100543.16;5011077;28;20104;-59
2022/08/22 10:46:35;;;;;;;51.45;35.47;;;;;;;32.05;21.50;100540.97;5023441;28;20030;-58
2022/08/22 10:49:07;;;;;;;45.38;29.83;;;;;;;31.86;21.48;100537.59;5026971;28;20056;-61
2022/08/22 10:51:43;;;;;;;34.95;26.67;;;;;;;32.06;21.39;100558.44;5030615;28;20068;-62
2022/08/22 10:54:21;;;;;;;38.85;26.50;;;;;;;32.15;21.21;100537.56;5030281;28;20484;-61
2022/08/22 10:57:11;;;;;;;37.75;26.65;;;;;;;32.24;20.95;100531.59;5029130;28;20526;-62
2022/08/22 10:59:43;;;;;;;38.70;26.02;;;;;;;32.21;21.16;100531.00;5030712;28;20041;-63
2022/08/22 11:02:17;;;;;;;32.53;24.52;;;;;;;32.30;20.92;100536.09;5027741;28;20032;-61
2022/08/22 11:04:54;;;;;;;31.08;21.63;;;;;;;32.17;20.59;100529.81;5030350;28;20468;-61
2022/08/22 11:07:38;;;;;;;27.95;21.90;;;;;;;32.35;20.79;100544.56;5029363;28;20052;-61
2022/08/22 11:10:15;;;;;;;31.75;22.58;;;;;;;32.07;21.31;100530.50;5028488;28;20116;-62
2022/08/22 11:13:10;;;;;;;38.20;24.55;;;;;;;32.05;21.31;100546.53;5028368;28;20069;-60
2022/08/22 11:15:55;;;;;;;32.33;24.30;;;;;;;32.00;21.33;100528.97;5026171;28;20097;-63
2022/08/22 11:18:43;;;;;;;36.00;23.37;;;;;;;31.69;21.75;100542.22;5010713;28;20088;-62
2022/08/22 11:21:32;;;;;;;26.60;19.35;;;;;;;31.73;21.23;100535.09;5014908;28;20127;-62
2022/08/22 11:24:34;;;;;;;26.33;19.17;;;;;;;31.69;21.72;100531.97;5010490;28;20038;-58
2022/08/22 11:27:33;;;;;;;26.33;18.25;;;;;;;31.70;21.70;100524.53;5010360;28;20030;-60
2022/08/22 11:30:19;;;;;;;25.88;18.58;;;;;;;31.60;21.92;100511.34;5023201;28;20037;-53
2022/08/22 11:32:56;;;;;;;19.48;13.27;;;;;;;31.54;21.54;100537.25;5034038;28;20025;-65
2022/08/22 11:35:30;;;;;;;23.23;12.73;;;;;;;31.30;21.23;100535.38;5013928;28;20465;-66
2022/08/22 11:38:14;;;;;;;15.73;11.10;;;;;;;31.17;21.52;100521.81;5018927;28;20042;-66
2022/08/22 11:41:01;;;;;;;17.80;11.63;;;;;;;31.27;21.52;100530.34;5013616;28;20030;-64
2022/08/22 11:43:47;;;;;;;14.57;10.00;;;;;;;31.27;21.14;100508.22;5014011;28;20030;-67
2022/08/22 11:46:30;;;;;;;19.95;11.02;;;;;;;31.29;21.40;100503.28;5013428;28;20037;-62
2022/08/22 11:49:14;;;;;;;22.40;12.18;;;;;;;31.57;21.77;100503.53;5016897;28;20088;-61
2022/08/22 11:51:46;;;;;;;20.05;12.20;;;;;;;31.48;22.03;100505.84;5013902;28;20033;-63
2022/08/22 11:54:16;;;;;;;26.33;15.63;;;;;;;31.49;22.05;100499.25;5013262;28;20041;-61
2022/08/22 11:57:19;;;;;;;21.92;13.73;;;;;;;31.71;21.30;100506.84;5013316;28;20400;-63
2022/08/22 11:59:45;;;;;;;16.08;9.68;;;;;;;31.48;20.85;100503.94;5023952;28;20057;-62
2022/08/22 12:02:17;;;;;;;17.42;9.32;;;;;;;31.41;21.09;100499.66;5032091;28;20033;-61
2022/08/22 12:04:51;;;;;;;18.20;10.13;;;;;;;31.23;21.58;100493.19;5033379;28;20474;-61
2022/08/22 12:07:26;;;;;;;18.55;10.90;;;;;;;31.37;21.37;100504.81;5030272;28;20033;-63
2022/08/22 12:10:05;;;;;;;22.75;11.00;;;;;;;31.53;21.20;100502.34;5031650;28;20465;-62
2022/08/22 12:12:34;;;;;;;19.20;9.73;;;;;;;31.52;21.34;100507.03;5030165;28;20037;-52
2022/08/22 12:15:02;;;;;;;15.68;9.95;;;;;;;31.41;22.04;100503.22;5014062;28;20037;-61